createdAt,value
2022-09-09T00:03:05.454Z,0.80
2022-09-09T00:07:13.396Z,0.80
2022-09-09T00:11:21.852Z,0.70
2022-09-09T00:15:53.450Z,0.70
2022-09-09T00:20:04.053Z,0.85
2022-09-09T00:24:26.680Z,0.50
2022-09-09T00:28:33.307Z,0.75
2022-09-09T00:32:36.774Z,0.93
2022-09-09T00:36:39.126Z,0.60
2022-09-09T00:40:53.271Z,0.70
2022-09-09T00:45:21.492Z,0.75
2022-09-09T00:50:01.056Z,0.95
2022-09-09T00:54:13.663Z,0.80
2022-09-09T00:58:15.481Z,0.63
2022-09-09T01:02:49.555Z,0.70
2022-09-09T01:06:56.952Z,0.60
2022-09-09T01:11:00.615Z,0.73
2022-09-09T01:15:05.230Z,0.80
2022-09-09T01:19:11.816Z,0.63
2022-09-09T01:23:51.594Z,0.73
2022-09-09T01:28:09.085Z,0.70
2022-09-09T01:32:41.018Z,0.70
2022-09-09T01:36:54.282Z,0.80
2022-09-09T01:40:56.230Z,0.80
2022-09-09T01:44:58.008Z,0.82
2022-09-09T01:49:01.725Z,0.80
2022-09-09T01:53:04.495Z,0.73
2022-09-09T01:57:32.066Z,0.60
2022-09-09T02:01:43.473Z,0.60
2022-09-09T02:05:55.483Z,0.60
2022-09-09T02:10:32.605Z,0.93
2022-09-09T02:14:42.716Z,0.60
2022-09-09T02:18:49.729Z,0.60
2022-09-09T02:22:53.700Z,0.82
2022-09-09T02:26:58.439Z,0.70
2022-09-09T02:31:01.609Z,0.60
2022-09-09T02:35:16.460Z,0.68
2022-09-09T02:39:18.157Z,0.65
2022-09-09T02:43:19.846Z,0.60
2022-09-09T02:47:29.712Z,0.60
2022-09-09T02:51:39.984Z,0.50
2022-09-09T02:55:56.418Z,0.50
2022-09-09T02:59:59.518Z,0.65
2022-09-09T03:04:01.194Z,0.70
2022-09-09T03:08:04.335Z,0.68
2022-09-09T03:12:06.072Z,0.70
2022-09-09T03:16:07.741Z,0.80
2022-09-09T03:20:10.099Z,0.73
2022-09-09T03:24:11.713Z,0.70
2022-09-09T03:28:13.328Z,0.70
2022-09-09T03:32:18.394Z,0.68
2022-09-09T03:36:20.112Z,0.70
2022-09-09T03:40:21.758Z,0.57
2022-09-09T03:44:23.343Z,0.60
2022-09-09T03:48:26.739Z,0.60
2022-09-09T03:52:28.290Z,0.70
2022-09-09T03:56:29.838Z,0.80
2022-09-09T04:00:31.463Z,0.55
2022-09-09T04:04:33.174Z,0.60
2022-09-09T04:08:36.615Z,0.60
2022-09-09T04:12:38.230Z,0.70
2022-09-09T04:16:40.227Z,0.70
2022-09-09T04:20:41.854Z,0.60
2022-09-09T04:24:48.081Z,0.70
2022-09-09T04:28:50.629Z,0.68
2022-09-09T04:32:52.212Z,0.75
2022-09-09T04:36:53.746Z,0.75
2022-09-09T04:40:55.331Z,0.50
2022-09-09T04:44:56.899Z,0.82
2022-09-09T04:48:58.460Z,0.50
2022-09-09T04:53:04.610Z,0.70
2022-09-09T04:57:06.128Z,0.70
2022-09-09T05:01:22.866Z,0.50
2022-09-09T05:05:24.581Z,0.50
2022-09-09T05:09:26.405Z,0.40
2022-09-09T05:13:28.780Z,0.40
2022-09-09T05:17:30.333Z,0.50
2022-09-09T05:21:32.347Z,0.52
2022-09-09T05:25:34.298Z,0.50
2022-09-09T05:29:35.833Z,0.50
2022-09-09T05:33:37.880Z,0.57
2022-09-09T05:37:39.437Z,0.50
2022-09-09T05:41:40.974Z,0.50
2022-09-09T05:45:42.488Z,0.50
2022-09-09T05:49:44.188Z,0.50
2022-09-09T05:53:46.803Z,0.50
2022-09-09T05:57:52.804Z,0.50
2022-09-09T06:06:06.575Z,0.50
2022-09-09T06:10:09.247Z,0.68
2022-09-09T06:14:10.910Z,0.50
2022-09-09T06:18:12.425Z,0.60
2022-09-09T06:22:14.109Z,0.65
2022-09-09T06:26:18.231Z,0.45
2022-09-09T06:30:20.349Z,0.50
2022-09-09T06:34:22.533Z,0.43
2022-09-09T06:38:24.676Z,0.50
2022-09-09T06:42:26.217Z,0.50
2022-09-09T06:46:31.293Z,0.60
2022-09-09T06:50:32.844Z,0.53
2022-09-09T06:54:34.561Z,0.55
2022-09-09T06:58:36.922Z,0.50
2022-09-09T07:02:40.064Z,0.55
2022-09-09T07:06:47.147Z,0.60
2022-09-09T07:10:48.753Z,0.50
2022-09-09T07:14:50.392Z,0.50
2022-09-09T07:18:53.466Z,0.50
2022-09-09T07:22:57.020Z,0.60
2022-09-09T07:26:59.469Z,0.50
2022-09-09T07:31:03.865Z,0.57
2022-09-09T07:35:06.118Z,0.60
2022-09-09T07:39:14.022Z,0.50
2022-09-09T07:43:17.526Z,0.40
2022-09-09T07:47:19.126Z,0.38
2022-09-09T07:51:24.114Z,0.40
2022-09-09T07:55:26.410Z,0.55
2022-09-09T07:59:28.783Z,0.40
2022-09-09T08:03:30.314Z,0.50
2022-09-09T08:07:31.850Z,0.60
2022-09-09T08:11:38.591Z,0.40
2022-09-09T08:15:41.976Z,0.50
2022-09-09T08:19:43.620Z,0.40
2022-09-09T08:23:47.867Z,0.45
2022-09-09T08:27:49.454Z,0.47
2022-09-09T08:31:55.245Z,0.50
2022-09-09T08:35:57.041Z,0.47
2022-09-09T08:39:58.702Z,0.40
2022-09-09T08:44:23.910Z,0.40
2022-09-09T08:48:48.371Z,0.40
2022-09-09T08:52:56.945Z,0.43
2022-09-09T08:56:58.511Z,0.50
2022-09-09T09:01:09.199Z,0.55
2022-09-09T09:05:33.914Z,0.47
2022-09-09T09:09:44.399Z,0.40
2022-09-09T09:13:53.841Z,0.50
2022-09-09T09:17:55.749Z,0.50
2022-09-09T09:22:23.057Z,0.50
2022-09-09T09:26:35.366Z,0.40
2022-09-09T09:30:50.663Z,0.40
2022-09-09T09:34:58.741Z,0.50
2022-09-09T09:43:34.361Z,0.40
2022-09-09T09:47:35.956Z,0.50
2022-09-09T09:51:37.569Z,0.50
2022-09-09T09:56:07.808Z,0.60
2022-09-09T10:00:18.261Z,0.60
2022-09-09T10:04:24.713Z,0.50
2022-09-09T10:08:27.406Z,0.52
2022-09-09T10:12:40.139Z,0.40
2022-09-09T10:16:59.722Z,0.57
2022-09-09T10:21:12.054Z,0.57
2022-09-09T10:25:55.050Z,0.50
2022-09-09T10:30:11.557Z,0.45
2022-09-09T10:34:19.437Z,0.38
2022-09-09T10:38:48.144Z,0.57
2022-09-09T10:42:49.742Z,0.43
2022-09-09T10:47:33.684Z,0.40
2022-09-09T10:51:46.002Z,0.40
2022-09-09T10:55:54.276Z,0.60
2022-09-09T11:00:01.013Z,0.45
2022-09-09T11:04:14.268Z,0.40
2022-09-09T11:08:20.746Z,0.40
2022-09-09T11:12:24.688Z,0.47
2022-09-09T11:16:35.570Z,0.40
2022-09-09T11:20:37.912Z,0.50
2022-09-09T11:24:48.846Z,0.35
2022-09-09T11:29:20.736Z,0.60
2022-09-09T11:33:25.379Z,0.40
2022-09-09T11:38:02.911Z,0.40
2022-09-09T11:42:13.252Z,0.30
2022-09-09T11:46:17.761Z,0.40
2022-09-09T11:50:19.618Z,0.47
2022-09-09T11:54:33.080Z,0.40
2022-09-09T11:58:40.196Z,0.32
2022-09-09T12:02:50.927Z,0.50
2022-09-09T12:06:57.826Z,0.40
2022-09-09T12:11:04.266Z,0.38
2022-09-09T12:15:08.872Z,0.40
2022-09-09T12:19:10.376Z,0.40
2022-09-09T12:23:36.639Z,0.30
2022-09-09T12:27:46.961Z,0.30
2022-09-09T12:32:08.042Z,0.30
2022-09-09T12:36:16.306Z,0.43
2022-09-09T12:40:26.618Z,0.50
2022-09-09T12:44:31.206Z,0.28
2022-09-09T12:48:39.653Z,0.25
2022-09-09T12:52:41.389Z,0.38
2022-09-09T12:56:47.636Z,0.22
2022-09-09T13:00:56.943Z,0.50
2022-09-09T13:05:15.815Z,0.40
2022-09-09T13:09:17.415Z,0.50
2022-09-09T13:13:26.982Z,0.30
2022-09-09T13:17:30.016Z,0.40
2022-09-09T13:21:41.236Z,0.30
2022-09-09T13:25:54.248Z,0.32
2022-09-09T13:29:57.671Z,0.30
2022-09-09T13:33:59.296Z,0.40
2022-09-09T13:38:09.777Z,0.30
2022-09-09T13:42:26.341Z,0.22
2022-09-09T13:46:35.238Z,0.30
2022-09-09T13:50:37.154Z,0.30
2022-09-09T13:54:39.044Z,0.35
2022-09-09T13:58:41.413Z,0.38
2022-09-09T14:02:45.079Z,0.50
2022-09-09T14:06:46.890Z,0.45
2022-09-09T14:10:48.537Z,0.50
2022-09-09T14:14:50.765Z,0.30
2022-09-09T14:18:53.318Z,0.20
2022-09-09T14:22:54.878Z,0.40
2022-09-09T14:26:56.755Z,0.20
2022-09-09T14:31:01.894Z,0.30
2022-09-09T14:35:03.896Z,0.40
2022-09-09T14:39:05.549Z,0.60
2022-09-09T14:43:07.232Z,0.30
2022-09-09T14:47:09.686Z,0.30
2022-09-09T14:51:14.064Z,0.50
2022-09-09T14:55:16.341Z,0.30
2022-09-09T14:59:17.889Z,0.40
2022-09-09T15:03:19.428Z,0.40
2022-09-09T15:07:21.034Z,0.30
2022-09-09T15:11:25.313Z,0.25
2022-09-09T15:15:27.723Z,0.30
2022-09-09T15:19:29.252Z,0.20
2022-09-09T15:23:32.999Z,0.20
2022-09-09T15:27:35.029Z,0.30
2022-09-09T15:31:37.270Z,0.38
2022-09-09T15:35:38.806Z,0.30
2022-09-09T15:39:41.864Z,0.38
2022-09-09T15:43:50.456Z,0.30
2022-09-09T15:47:52.016Z,0.50
2022-09-09T15:52:04.273Z,0.40
2022-09-09T15:56:09.115Z,0.30
2022-09-09T16:00:13.787Z,0.20
2022-09-09T16:04:21.147Z,0.40
2022-09-09T16:08:22.746Z,0.45
2022-09-09T16:12:24.714Z,0.30
2022-09-09T16:16:28.568Z,0.40
2022-09-09T16:20:30.156Z,0.40
2022-09-09T16:24:31.688Z,0.20
2022-09-09T16:28:33.273Z,0.40
2022-09-09T16:32:35.611Z,0.30
2022-09-09T16:36:39.967Z,0.32
2022-09-09T16:40:44.394Z,0.40
2022-09-09T16:44:45.925Z,0.50
2022-09-09T16:48:48.716Z,0.30
2022-09-09T16:52:50.307Z,0.40
2022-09-09T16:56:52.029Z,0.40
2022-09-09T17:00:59.558Z,0.40
2022-09-09T17:05:01.078Z,0.40
2022-09-09T17:09:07.093Z,0.50
2022-09-09T17:17:30.709Z,0.20
2022-09-09T17:21:33.160Z,0.32
2022-09-09T17:25:34.937Z,0.30
2022-09-09T17:29:39.649Z,0.45
2022-09-09T17:33:45.645Z,0.50
2022-09-09T17:41:49.507Z,0.30
2022-09-09T17:45:51.088Z,0.38
2022-09-09T17:49:52.665Z,0.50
2022-09-09T17:53:56.256Z,0.32
2022-09-09T17:57:57.807Z,0.40
2022-09-09T18:01:59.447Z,0.30
2022-09-09T18:06:06.737Z,0.30
2022-09-09T18:10:08.507Z,0.40
2022-09-09T18:14:12.800Z,0.40
2022-09-09T18:18:14.633Z,0.30
2022-09-09T18:22:16.246Z,0.40
2022-09-09T18:26:33.405Z,0.40
2022-09-09T18:30:40.242Z,0.20
2022-09-09T18:34:41.841Z,0.30
2022-09-09T18:38:43.919Z,0.30
2022-09-09T18:42:47.197Z,0.30
2022-09-09T18:46:50.117Z,0.40
2022-09-09T18:50:51.933Z,0.30
2022-09-09T18:54:53.725Z,0.30
2022-09-09T18:58:57.907Z,0.40
2022-09-09T19:02:59.539Z,0.60
2022-09-09T19:07:01.247Z,0.38
2022-09-09T19:11:04.936Z,0.30
2022-09-09T19:15:06.915Z,0.40
2022-09-09T19:19:13.474Z,0.50
2022-09-09T19:23:15.098Z,0.20
2022-09-09T19:27:16.735Z,0.40
2022-09-09T19:31:20.181Z,0.30
2022-09-09T19:35:22.721Z,0.40
2022-09-09T19:39:24.632Z,0.43
2022-09-09T19:43:26.282Z,0.30
2022-09-09T19:47:27.866Z,0.40
2022-09-09T19:51:31.170Z,0.40
2022-09-09T19:55:32.844Z,0.30
2022-09-09T19:59:35.239Z,0.35
2022-09-09T20:03:38.168Z,0.47
2022-09-09T20:07:39.701Z,0.40
2022-09-09T20:11:43.263Z,0.40
2022-09-09T20:15:44.798Z,0.30
2022-09-09T20:19:46.378Z,0.50
2022-09-09T20:23:49.606Z,0.32
2022-09-09T20:27:51.373Z,0.30
2022-09-09T20:31:52.988Z,0.40
2022-09-09T20:35:54.563Z,0.30
2022-09-09T20:39:56.493Z,0.30
2022-09-09T20:44:01.474Z,0.30
2022-09-09T20:48:03.745Z,0.30
2022-09-09T20:52:06.845Z,0.30
2022-09-09T20:56:09.385Z,0.40
2022-09-09T21:00:11.502Z,0.30
2022-09-09T21:04:15.324Z,0.50
2022-09-09T21:08:16.889Z,0.30
2022-09-09T21:12:18.543Z,0.38
2022-09-09T21:16:21.197Z,0.20
2022-09-09T21:20:22.913Z,0.30
2022-09-09T21:24:24.736Z,0.45
2022-09-09T21:28:26.913Z,0.30
2022-09-09T21:32:28.496Z,0.30
2022-09-09T21:36:30.459Z,0.30
2022-09-09T21:40:32.034Z,0.30
2022-09-09T21:44:33.574Z,0.40
2022-09-09T21:48:35.243Z,0.30
2022-09-09T21:52:36.787Z,0.30
2022-09-09T21:56:39.055Z,0.40
2022-09-09T22:00:46.099Z,0.30
2022-09-09T22:04:47.853Z,0.43
2022-09-09T22:08:49.898Z,0.40
2022-09-09T22:12:51.715Z,0.30
2022-09-09T22:16:53.598Z,0.40
2022-09-09T22:20:55.289Z,0.35
2022-09-09T22:24:56.825Z,0.40
2022-09-09T22:28:59.299Z,0.35
2022-09-09T22:33:01.216Z,0.20
2022-09-09T22:37:04.563Z,0.20
2022-09-09T22:41:06.233Z,0.30
2022-09-09T22:45:09.422Z,0.40
2022-09-09T22:49:11.190Z,0.25
2022-09-09T22:53:15.442Z,0.50
2022-09-09T22:57:17.001Z,0.35
2022-09-09T23:01:20.957Z,0.30
2022-09-09T23:05:24.385Z,0.30
2022-09-09T23:09:25.998Z,0.30
2022-09-09T23:13:31.847Z,0.20
2022-09-09T23:17:34.171Z,0.20
2022-09-09T23:21:37.318Z,0.30
2022-09-09T23:25:39.076Z,0.30
2022-09-09T23:29:40.596Z,0.20
2022-09-09T23:33:45.752Z,0.30
2022-09-09T23:37:47.986Z,0.30
2022-09-09T23:41:50.465Z,0.28
2022-09-09T23:45:52.034Z,0.22
2022-09-09T23:49:53.593Z,0.50
2022-09-09T23:53:56.987Z,0.40
2022-09-09T23:57:58.598Z,0.30
